Time;durP1;ratioP1;P1;durP2;ratioP2;P2;SDS_P1;SDS_P2;PMS_P1;PMS_P2;Temp;Humidity;BMP_temperature;BMP_pressure;BME280_temperature;BME280_humidity;BME280_pressure;Samples;Min_cycle;Max_cycle;Signal;HPM_P1;HPM_P2
2024/01/04 00:00:31;;;;;;;3.08;0.60;;;8.70;99.90;;;;;;5062553;28;20270;-73
2024/01/04 00:02:56;;;;;;;3.45;0.63;;;8.60;99.90;;;;;;5048003;28;20028;-76
2024/01/04 00:05:22;;;;;;;5.10;0.73;;;8.40;99.90;;;;;;5043869;28;20037;-75
2024/01/04 00:07:48;;;;;;;2.45;0.45;;;8.30;99.90;;;;;;5043930;28;20045;-74
2024/01/04 00:10:14;;;;;;;3.58;0.40;;;8.20;99.90;;;;;;5043469;28;20218;-75
2024/01/04 00:12:41;;;;;;;4.97;0.88;;;8.20;99.90;;;;;;5042585;28;20021;-74
2024/01/04 00:15:08;;;;;;;5.13;0.50;;;8.10;99.90;;;;;;5048984;28;20033;-75
2024/01/04 00:17:33;;;;;;;1.88;0.40;;;8.10;99.90;;;;;;5042272;28;20018;-75
2024/01/04 00:20:00;;;;;;;3.50;0.60;;;8.10;99.90;;;;;;5058545;28;20311;-74
2024/01/04 00:22:26;;;;;;;3.25;0.47;;;8.10;99.90;;;;;;5043692;28;20036;-74
2024/01/04 00:24:52;;;;;;;2.28;0.43;;;8.10;99.90;;;;;;5043670;28;20140;-74
2024/01/04 00:27:17;;;;;;;2.05;0.35;;;8.10;99.90;;;;;;5043348;28;20029;-74
2024/01/04 00:29:43;;;;;;;3.67;0.68;;;8.10;99.90;;;;;;5043352;28;20063;-75
2024/01/04 00:32:09;;;;;;;5.57;0.70;;;8.10;99.90;;;;;;5050597;28;20025;-73
2024/01/04 00:34:35;;;;;;;3.38;0.43;;;8.10;99.90;;;;;;5053944;28;20134;-75
2024/01/04 00:37:02;;;;;;;3.42;0.43;;;8.10;99.90;;;;;;5054887;28;20029;-75
2024/01/04 00:39:28;;;;;;;4.05;0.50;;;8.00;99.90;;;;;;5063177;28;20206;-75
2024/01/04 00:41:53;;;;;;;2.40;0.40;;;8.00;99.90;;;;;;5078774;28;20032;-74
2024/01/04 00:44:20;;;;;;;4.78;0.60;;;8.00;99.90;;;;;;5078296;28;20037;-77
2024/01/04 00:46:45;;;;;;;4.57;0.70;;;8.10;99.90;;;;;;5054776;28;20372;-76
2024/01/04 00:49:11;;;;;;;2.90;0.40;;;8.10;99.90;;;;;;5042828;28;20037;-75
2024/01/04 00:51:37;;;;;;;4.53;0.70;;;8.10;99.90;;;;;;5042894;28;20220;-75
2024/01/04 00:54:03;;;;;;;2.58;0.43;;;8.00;99.90;;;;;;5041604;28;20051;-73
2024/01/04 00:56:33;;;;;;;4.43;0.73;;;8.00;99.90;;;;;;5042578;28;20036;-75
2024/01/04 00:59:00;;;;;;;3.03;0.30;;;8.00;99.90;;;;;;5042358;28;20037;-75
2024/01/04 01:01:26;;;;;;;5.97;0.63;;;8.00;99.90;;;;;;5044252;28;20033;-76
2024/01/04 01:03:51;;;;;;;3.65;0.70;;;8.00;99.90;;;;;;5057445;28;20025;-74
2024/01/04 01:06:17;;;;;;;5.85;1.20;;;8.00;99.90;;;;;;5042831;28;20067;-74
2024/01/04 01:08:43;;;;;;;5.55;0.70;;;7.90;99.90;;;;;;5042905;28;20284;-75
2024/01/04 01:11:08;;;;;;;3.95;0.52;;;7.90;99.90;;;;;;5042136;28;20039;-74
2024/01/04 01:13:34;;;;;;;3.03;0.52;;;7.80;99.90;;;;;;5042709;28;20267;-77
2024/01/04 01:16:00;;;;;;;6.95;0.68;;;7.80;99.90;;;;;;5042291;28;20022;-73
2024/01/04 01:18:26;;;;;;;3.45;0.40;;;7.70;99.90;;;;;;5042341;28;20326;-73
2024/01/04 01:20:53;;;;;;;5.88;0.70;;;7.60;99.90;;;;;;5042730;28;20037;-73
2024/01/04 01:23:19;;;;;;;3.72;0.60;;;7.50;99.90;;;;;;5042271;28;20063;-75
2024/01/04 01:25:45;;;;;;;5.35;0.45;;;7.50;99.90;;;;;;5042430;28;20100;-74
2024/01/04 01:28:11;;;;;;;5.15;0.68;;;7.60;99.90;;;;;;5042161;28;20022;-75
2024/01/04 01:30:36;;;;;;;3.05;0.57;;;7.50;99.90;;;;;;5041376;28;20053;-75
2024/01/04 01:33:02;;;;;;;2.28;0.60;;;7.50;99.90;;;;;;5041840;28;20079;-74
2024/01/04 01:35:28;;;;;;;3.17;0.77;;;7.50;99.90;;;;;;5042601;28;20048;-74
2024/01/04 01:37:54;;;;;;;2.72;0.43;;;7.50;99.90;;;;;;5042687;28;20300;-74
2024/01/04 01:40:21;;;;;;;2.40;0.40;;;7.50;99.90;;;;;;5042115;28;20208;-75
2024/01/04 01:42:50;;;;;;;3.72;0.43;;;7.40;99.90;;;;;;5042467;28;20025;-73
2024/01/04 01:45:20;;;;;;;5.68;0.60;;;7.40;99.90;;;;;;5042258;28;20033;-76
2024/01/04 01:47:49;;;;;;;1.55;0.43;;;7.30;99.90;;;;;;5042778;28;20080;-76
2024/01/04 01:50:19;;;;;;;3.92;0.55;;;7.40;99.90;;;;;;5040783;28;20305;-76
2024/01/04 01:52:46;;;;;;;2.47;0.40;;;7.40;99.90;;;;;;5041179;28;20349;-76
2024/01/04 01:55:14;;;;;;;1.70;0.30;;;7.50;99.90;;;;;;5042171;28;20048;-75
2024/01/04 01:57:40;;;;;;;1.33;0.30;;;7.60;99.90;;;;;;5041241;28;20038;-76
2024/01/04 02:00:08;;;;;;;1.75;0.30;;;7.50;99.90;;;;;;5044444;28;20184;-75
2024/01/04 02:02:46;;;;;;;2.20;0.52;;;7.50;99.90;;;;;;5059179;28;20025;-76
2024/01/04 02:05:12;;;;;;;4.22;0.20;;;7.10;99.90;;;;;;5066435;28;20036;-74
2024/01/04 02:07:38;;;;;;;2.33;0.20;;;6.90;99.90;;;;;;5066410;28;20096;-76
2024/01/04 02:10:05;;;;;;;2.15;0.20;;;6.70;99.90;;;;;;5045885;28;20045;-75
2024/01/04 02:12:32;;;;;;;0.95;0.30;;;6.70;99.90;;;;;;5045171;28;20021;-74
2024/01/04 02:14:57;;;;;;;1.42;0.20;;;6.60;99.90;;;;;;5046051;28;20033;-75
2024/01/04 02:17:25;;;;;;;1.25;0.20;;;6.70;99.90;;;;;;5061415;28;20033;-75
2024/01/04 02:19:52;;;;;;;1.00;0.10;;;6.60;99.90;;;;;;5046235;28;20026;-74
2024/01/04 02:22:17;;;;;;;3.70;0.77;;;6.60;99.90;;;;;;5044462;28;20036;-78
2024/01/04 02:24:44;;;;;;;1.55;0.10;;;6.60;99.90;;;;;;5046040;28;20212;-76
2024/01/04 02:27:11;;;;;;;0.45;0.20;;;6.60;99.90;;;;;;5061108;28;20036;-73
2024/01/04 02:29:36;;;;;;;2.05;0.20;;;6.60;99.90;;;;;;5044425;28;20324;-76
2024/01/04 02:32:02;;;;;;;1.52;0.38;;;6.60;99.90;;;;;;5043937;28;20029;-73
2024/01/04 02:34:29;;;;;;;3.05;0.20;;;6.60;99.90;;;;;;5045849;28;20304;-74
2024/01/04 02:36:55;;;;;;;0.80;0.10;;;6.60;99.90;;;;;;5045764;28;20177;-75
2024/01/04 02:39:21;;;;;;;2.53;0.13;;;6.60;99.90;;;;;;5044968;28;20065;-74
2024/01/04 02:41:47;;;;;;;0.17;0.00;;;6.60;99.90;;;;;;5044942;28;20021;-74
2024/01/04 02:44:13;;;;;;;2.15;0.45;;;6.60;99.90;;;;;;5045127;28;20084;-74
2024/01/04 02:46:38;;;;;;;0.43;0.10;;;6.50;99.90;;;;;;5045569;28;20112;-76
2024/01/04 02:49:04;;;;;;;0.73;0.13;;;6.50;99.90;;;;;;5045342;28;20378;-73
2024/01/04 02:51:30;;;;;;;1.02;0.10;;;6.40;99.90;;;;;;5045359;28;20065;-76
2024/01/04 02:53:56;;;;;;;1.00;0.17;;;6.40;99.90;;;;;;5044259;28;20029;-75
2024/01/04 02:56:22;;;;;;;0.70;0.10;;;6.40;99.90;;;;;;5044832;28;20075;-73
2024/01/04 02:58:48;;;;;;;1.67;0.15;;;6.40;99.90;;;;;;5045220;28;20029;-76
2024/01/04 03:01:23;;;;;;;2.05;0.20;;;6.40;99.90;;;;;;5045340;28;20034;-75
2024/01/04 03:03:51;;;;;;;1.00;0.10;;;6.40;99.90;;;;;;5047318;28;20029;-76
2024/01/04 03:06:27;;;;;;;1.85;0.60;;;6.30;99.90;;;;;;5064561;28;20036;-75
2024/01/04 03:08:53;;;;;;;0.93;0.20;;;6.30;99.90;;;;;;5063736;28;20223;-75
2024/01/04 03:11:19;;;;;;;1.77;0.20;;;6.30;99.90;;;;;;5064303;28;20064;-76
2024/01/04 03:13:48;;;;;;;0.70;0.00;;;6.40;99.90;;;;;;5064991;28;20024;-75
2024/01/04 03:16:14;;;;;;;0.30;0.03;;;6.40;99.90;;;;;;5044774;28;20379;-74
2024/01/04 03:18:40;;;;;;;1.58;0.30;;;6.50;99.90;;;;;;5044476;28;20028;-75
2024/01/04 03:21:06;;;;;;;2.33;0.20;;;6.50;99.90;;;;;;5044406;28;20092;-77
2024/01/04 03:23:31;;;;;;;2.13;0.10;;;6.50;99.90;;;;;;5044995;28;20097;-74
2024/01/04 03:25:57;;;;;;;0.68;0.20;;;6.60;99.90;;;;;;5044616;28;20053;-74
2024/01/04 03:28:23;;;;;;;1.23;0.13;;;6.50;99.90;;;;;;5044059;28;20027;-75
2024/01/04 03:30:48;;;;;;;1.08;0.10;;;6.50;99.90;;;;;;5044401;28;20329;-78
2024/01/04 03:33:14;;;;;;;0.30;0.00;;;6.50;99.90;;;;;;5043969;28;20046;-74
2024/01/04 03:35:40;;;;;;;2.03;0.10;;;6.50;99.90;;;;;;5044669;28;20020;-77
2024/01/04 03:38:05;;;;;;;0.98;0.10;;;6.50;99.90;;;;;;5044039;28;20029;-76
2024/01/04 03:40:31;;;;;;;0.82;0.10;;;6.50;99.90;;;;;;5044313;28;20035;-76
2024/01/04 03:42:57;;;;;;;0.22;0.10;;;6.40;99.90;;;;;;5044388;28;20017;-76
2024/01/04 03:45:23;;;;;;;3.08;0.17;;;6.40;99.90;;;;;;5043997;28;20343;-76
2024/01/04 03:47:49;;;;;;;3.72;0.20;;;6.40;99.90;;;;;;5043995;28;20033;-77
2024/01/04 03:50:14;;;;;;;0.47;0.10;;;6.40;99.90;;;;;;5043987;28;20037;-76
2024/01/04 03:52:40;;;;;;;1.33;0.13;;;6.50;99.90;;;;;;5044478;28;20155;-77
2024/01/04 03:55:06;;;;;;;1.60;0.10;;;6.40;99.90;;;;;;5043814;28;20043;-74
2024/01/04 03:57:32;;;;;;;0.77;0.15;;;6.50;99.90;;;;;;5044185;28;20017;-77
2024/01/04 03:59:57;;;;;;;1.30;0.17;;;6.50;99.90;;;;;;5044265;28;20316;-74
2024/01/04 04:02:23;;;;;;;1.38;0.17;;;6.50;99.90;;;;;;5053797;28;20021;-74
2024/01/04 04:04:49;;;;;;;3.05;0.28;;;6.50;99.90;;;;;;5057149;28;20025;-76
2024/01/04 04:07:15;;;;;;;0.65;0.10;;;6.60;99.90;;;;;;5043752;28;20033;-76
2024/01/04 04:09:40;;;;;;;2.03;0.30;;;6.60;99.90;;;;;;5043823;28;20358;-74
2024/01/04 04:12:06;;;;;;;1.52;0.30;;;6.70;99.90;;;;;;5043635;28;20041;-76
2024/01/04 04:14:34;;;;;;;4.32;0.20;;;6.70;99.90;;;;;;5043846;28;20017;-75
2024/01/04 04:17:02;;;;;;;1.63;0.20;;;6.70;99.90;;;;;;5044122;28;20053;-76
2024/01/04 04:19:28;;;;;;;3.63;0.20;;;6.80;99.90;;;;;;5043659;28;20025;-75
2024/01/04 04:21:54;;;;;;;2.35;0.20;;;6.80;99.90;;;;;;5042666;28;20038;-74
2024/01/04 04:24:19;;;;;;;3.58;0.40;;;6.80;99.90;;;;;;5043343;28;20270;-75
2024/01/04 04:26:45;;;;;;;1.92;0.20;;;6.90;99.90;;;;;;5043539;28;20101;-75
2024/01/04 04:29:11;;;;;;;2.13;0.93;;;6.90;99.90;;;;;;5042279;28;20052;-74
2024/01/04 04:31:36;;;;;;;1.92;0.20;;;6.90;99.90;;;;;;5042271;28;20038;-75
2024/01/04 04:34:02;;;;;;;2.97;0.35;;;7.00;99.90;;;;;;5043645;28;20025;-73
2024/01/04 04:36:28;;;;;;;2.20;0.30;;;6.90;99.90;;;;;;5043541;28;20044;-75
2024/01/04 04:38:53;;;;;;;5.03;0.52;;;6.90;99.90;;;;;;5045244;28;20197;-76
2024/01/04 04:41:19;;;;;;;2.65;0.40;;;7.00;99.90;;;;;;5043220;28;20031;-76
2024/01/04 04:43:45;;;;;;;2.47;0.30;;;7.10;99.90;;;;;;5043220;28;20030;-76
2024/01/04 04:46:12;;;;;;;3.58;1.27;;;7.10;99.90;;;;;;5042458;28;20159;-76
2024/01/04 04:48:37;;;;;;;4.28;0.43;;;7.10;99.90;;;;;;5043144;28;20273;-75
2024/01/04 04:51:04;;;;;;;2.90;0.63;;;7.20;99.90;;;;;;5043114;28;20052;-75
2024/01/04 04:53:29;;;;;;;3.50;0.45;;;7.20;99.90;;;;;;5043054;28;20025;-74
2024/01/04 04:55:55;;;;;;;1.65;0.30;;;7.20;99.90;;;;;;5042084;28;20021;-75
2024/01/04 04:58:20;;;;;;;4.40;0.43;;;7.20;99.90;;;;;;5042823;28;20037;-75
2024/01/04 05:00:46;;;;;;;4.47;0.40;;;7.20;99.90;;;;;;5042949;28;20049;-75
2024/01/04 05:03:12;;;;;;;5.30;0.80;;;7.20;99.90;;;;;;5058621;28;20032;-75
2024/01/04 05:05:38;;;;;;;1.58;0.30;;;7.20;99.90;;;;;;5061846;28;20192;-74
2024/01/04 05:08:06;;;;;;;3.75;0.85;;;7.20;99.90;;;;;;5063017;28;20037;-74
2024/01/04 05:10:32;;;;;;;2.13;0.38;;;7.20;99.90;;;;;;5062891;28;20025;-74
2024/01/04 05:13:01;;;;;;;3.15;0.30;;;7.20;99.90;;;;;;5061167;28;20033;-77
2024/01/04 05:15:27;;;;;;;2.30;0.40;;;7.20;99.90;;;;;;5062041;28;20036;-74
2024/01/04 05:17:53;;;;;;;1.70;0.40;;;7.20;99.90;;;;;;5062880;28;20216;-75
2024/01/04 05:20:19;;;;;;;3.35;0.43;;;7.20;99.90;;;;;;5061341;28;20041;-76
2024/01/04 05:22:45;;;;;;;4.60;0.50;;;7.20;99.90;;;;;;5062814;28;20037;-74
2024/01/04 05:25:12;;;;;;;1.85;0.40;;;7.30;99.90;;;;;;5062073;28;20058;-76
2024/01/04 05:27:38;;;;;;;2.15;0.35;;;7.40;99.90;;;;;;5062528;28;20053;-77
2024/01/04 05:30:08;;;;;;;4.55;0.43;;;7.40;99.90;;;;;;5046499;28;20100;-75
2024/01/04 05:32:34;;;;;;;4.22;0.38;;;7.50;99.90;;;;;;5057642;28;20021;-76
2024/01/04 05:35:00;;;;;;;2.45;0.40;;;7.40;99.90;;;;;;5042669;28;20036;-76
2024/01/04 05:37:25;;;;;;;3.58;0.30;;;7.50;99.90;;;;;;5042034;28;20493;-76
2024/01/04 05:39:51;;;;;;;5.22;0.45;;;7.50;99.90;;;;;;5041323;28;20100;-75
2024/01/04 05:42:17;;;;;;;2.80;0.40;;;7.60;99.90;;;;;;5041871;28;20026;-74
2024/01/04 05:44:42;;;;;;;1.80;0.50;;;7.70;99.90;;;;;;5042144;28;20181;-74
2024/01/04 05:47:08;;;;;;;3.10;0.30;;;7.70;99.90;;;;;;5042042;28;20064;-76
2024/01/04 05:49:34;;;;;;;1.73;0.20;;;7.70;99.90;;;;;;5041849;28;20075;-75
2024/01/04 05:51:59;;;;;;;3.03;0.30;;;7.80;99.90;;;;;;5042459;28;20189;-74
2024/01/04 05:54:25;;;;;;;3.47;0.40;;;7.80;99.90;;;;;;5041644;28;20240;-73
2024/01/04 05:56:50;;;;;;;3.85;0.40;;;7.80;99.90;;;;;;5040951;28;20203;-76
2024/01/04 05:59:16;;;;;;;1.45;0.30;;;7.80;99.90;;;;;;5041770;28;20071;-74
2024/01/04 06:01:42;;;;;;;1.77;0.30;;;7.80;99.90;;;;;;5046972;28;20043;-75
2024/01/04 06:04:07;;;;;;;5.60;0.60;;;7.80;99.90;;;;;;5054482;28;20306;-75
2024/01/04 06:06:33;;;;;;;2.13;0.40;;;7.80;99.90;;;;;;5041994;28;20029;-75
2024/01/04 06:08:59;;;;;;;2.13;0.45;;;7.80;99.90;;;;;;5057800;28;20508;-74
2024/01/04 06:11:24;;;;;;;3.97;0.57;;;7.80;99.90;;;;;;5041807;28;20330;-75
2024/01/04 06:13:50;;;;;;;3.58;0.40;;;7.80;99.90;;;;;;5041882;28;20052;-74
2024/01/04 06:16:17;;;;;;;4.82;0.50;;;7.70;99.90;;;;;;5041799;28;20021;-74
2024/01/04 06:18:43;;;;;;;6.05;0.57;;;7.70;99.90;;;;;;5041750;28;20155;-74
2024/01/04 06:21:09;;;;;;;2.17;0.40;;;7.80;99.90;;;;;;5041813;28;20041;-73
2024/01/04 06:23:34;;;;;;;2.17;0.32;;;7.80;99.90;;;;;;5041883;28;20025;-74
2024/01/04 06:26:00;;;;;;;4.88;0.40;;;7.90;99.90;;;;;;5041898;28;20025;-75
2024/01/04 06:28:26;;;;;;;2.60;0.40;;;7.90;99.90;;;;;;5041332;28;20037;-75
2024/01/04 06:30:51;;;;;;;3.50;0.70;;;7.90;99.90;;;;;;5041793;28;20037;-75
2024/01/04 06:33:17;;;;;;;3.10;0.63;;;8.00;99.90;;;;;;5040212;28;20109;-76
2024/01/04 06:35:43;;;;;;;2.95;0.60;;;8.00;99.90;;;;;;5042005;28;20040;-74
2024/01/04 06:38:09;;;;;;;3.38;0.50;;;8.00;99.90;;;;;;5041738;28;20029;-74
2024/01/04 06:40:38;;;;;;;2.42;0.35;;;8.00;99.90;;;;;;5041998;28;20277;-76
2024/01/04 06:43:08;;;;;;;3.92;0.73;;;7.90;99.90;;;;;;5041810;28;20030;-75
2024/01/04 06:45:37;;;;;;;6.07;0.40;;;7.80;99.90;;;;;;5058979;28;20326;-75
2024/01/04 06:48:03;;;;;;;2.88;0.60;;;7.80;99.90;;;;;;5045191;28;20096;-75
2024/01/04 06:50:29;;;;;;;4.50;0.52;;;7.70;99.90;;;;;;5044898;28;20247;-74
2024/01/04 06:52:55;;;;;;;3.17;0.50;;;7.70;99.90;;;;;;5061113;28;20300;-75
2024/01/04 06:55:21;;;;;;;3.47;0.60;;;7.70;99.90;;;;;;5045164;28;20025;-74
2024/01/04 06:57:47;;;;;;;4.00;0.50;;;7.70;99.90;;;;;;5044026;28;20280;-73
2024/01/04 07:00:13;;;;;;;3.75;0.40;;;7.70;99.90;;;;;;5044994;28;20029;-73
2024/01/04 07:02:39;;;;;;;4.05;0.40;;;7.80;99.90;;;;;;5057454;28;20135;-74
2024/01/04 07:05:06;;;;;;;8.48;1.40;;;7.90;99.90;;;;;;5045091;28;20034;-73
2024/01/04 07:07:32;;;;;;;3.83;0.50;;;7.90;99.90;;;;;;5044511;28;20021;-74
2024/01/04 07:09:58;;;;;;;4.60;0.50;;;7.90;99.90;;;;;;5060206;28;20033;-74
2024/01/04 07:12:27;;;;;;;4.20;0.40;;;7.90;99.90;;;;;;5044719;28;20045;-75
2024/01/04 07:14:53;;;;;;;2.65;0.40;;;8.00;99.90;;;;;;5045079;28;20025;-75
2024/01/04 07:17:20;;;;;;;3.40;0.95;;;8.00;99.90;;;;;;5044423;28;20109;-75
2024/01/04 07:19:46;;;;;;;3.72;0.60;;;8.00;99.90;;;;;;5044876;28;20063;-73
2024/01/04 07:22:12;;;;;;;2.58;0.30;;;8.00;99.90;;;;;;5044218;28;20023;-74
2024/01/04 07:24:38;;;;;;;4.85;0.60;;;8.00;99.90;;;;;;5044505;28;20365;-75
2024/01/04 07:27:05;;;;;;;2.60;0.40;;;8.00;99.90;;;;;;5044780;28;20044;-76
2024/01/04 07:29:33;;;;;;;1.92;0.35;;;8.00;99.90;;;;;;5044165;28;20025;-75
2024/01/04 07:31:59;;;;;;;3.00;0.55;;;8.00;99.90;;;;;;5044318;28;20033;-77
2024/01/04 07:34:25;;;;;;;3.20;0.60;;;8.00;99.90;;;;;;5043980;28;20091;-77
2024/01/04 07:36:51;;;;;;;2.55;0.30;;;8.00;99.90;;;;;;5044813;28;20026;-76
2024/01/04 07:39:17;;;;;;;1.63;0.30;;;8.00;99.90;;;;;;5044331;28;20033;-75
2024/01/04 07:41:43;;;;;;;1.73;0.35;;;7.90;99.90;;;;;;5044808;28;20033;-76
2024/01/04 07:44:10;;;;;;;3.17;0.60;;;7.90;99.90;;;;;;5044582;28;20292;-75
2024/01/04 07:46:36;;;;;;;2.08;0.30;;;7.80;99.90;;;;;;5043941;28;20037;-74
2024/01/04 07:49:06;;;;;;;2.67;0.40;;;7.80;99.90;;;;;;5044082;28;20056;-74
2024/01/04 07:51:32;;;;;;;2.28;0.35;;;7.80;99.90;;;;;;5059354;28;20304;-74
2024/01/04 07:53:58;;;;;;;4.18;0.50;;;7.70;99.90;;;;;;5044346;28;20030;-73
2024/01/04 07:56:24;;;;;;;3.58;0.40;;;7.70;99.90;;;;;;5043987;28;20366;-75
2024/01/04 07:58:49;;;;;;;2.72;0.43;;;7.70;99.90;;;;;;5044261;28;20025;-78
2024/01/04 08:01:15;;;;;;;2.67;0.30;;;7.70;99.90;;;;;;5059782;28;20044;-74
2024/01/04 08:03:42;;;;;;;2.70;0.40;;;7.60;99.90;;;;;;5043592;28;20061;-74
2024/01/04 08:06:08;;;;;;;4.05;0.50;;;7.60;99.90;;;;;;5043905;28;20235;-75
2024/01/04 08:08:33;;;;;;;3.17;0.47;;;7.50;99.90;;;;;;5042214;28;20030;-75
2024/01/04 08:11:01;;;;;;;5.55;1.50;;;7.50;99.90;;;;;;5044120;28;20108;-76
2024/01/04 08:13:27;;;;;;;6.82;1.60;;;7.50;99.90;;;;;;5042508;28;20267;-74
2024/01/04 08:15:53;;;;;;;3.83;0.68;;;7.50;99.90;;;;;;5043770;28;20033;-75
2024/01/04 08:18:22;;;;;;;2.60;0.50;;;7.60;99.90;;;;;;5043172;28;20032;-76
2024/01/04 08:20:48;;;;;;;4.55;0.75;;;7.60;99.90;;;;;;5043658;28;20044;-75
2024/01/04 08:23:17;;;;;;;5.07;0.50;;;7.70;99.90;;;;;;5043313;28;20041;-80
2024/01/04 08:25:43;;;;;;;4.22;0.60;;;7.70;99.90;;;;;;5043170;28;20271;-72
2024/01/04 08:28:14;;;;;;;4.05;0.70;;;7.70;99.90;;;;;;5044127;28;20033;-77
2024/01/04 08:30:41;;;;;;;3.80;0.68;;;7.70;99.90;;;;;;5059156;28;20104;-79
2024/01/04 08:33:19;;;;;;;4.32;0.70;;;7.60;99.90;;;;;;5043783;28;20089;-76
2024/01/04 08:35:48;;;;;;;3.90;0.70;;;7.70;99.90;;;;;;5043565;28;20017;-76
2024/01/04 08:38:14;;;;;;;3.10;0.73;;;7.60;99.90;;;;;;5058732;28;20097;-74
2024/01/04 08:40:45;;;;;;;6.40;0.85;;;7.50;99.90;;;;;;5041756;28;20022;-76
2024/01/04 08:43:11;;;;;;;5.57;0.70;;;7.60;99.90;;;;;;5042135;28;20022;-74
2024/01/04 08:45:36;;;;;;;7.07;1.05;;;7.60;99.90;;;;;;5042513;28;20342;-75
2024/01/04 08:48:02;;;;;;;5.07;0.50;;;7.50;99.90;;;;;;5042335;28;20208;-76
2024/01/04 08:50:28;;;;;;;4.53;0.65;;;7.70;99.90;;;;;;5042326;28;20338;-74
2024/01/04 08:52:54;;;;;;;4.13;0.80;;;7.70;99.90;;;;;;5043386;28;20038;-74
2024/01/04 08:55:22;;;;;;;4.70;0.80;;;7.90;99.90;;;;;;5042679;28;20236;-74
2024/01/04 08:57:48;;;;;;;7.28;0.80;;;8.00;99.90;;;;;;5042046;28;20045;-75
2024/01/04 09:00:14;;;;;;;4.70;0.95;;;8.20;99.90;;;;;;5043225;28;20079;-78
2024/01/04 09:02:41;;;;;;;6.55;0.88;;;8.30;99.90;;;;;;5070686;28;20024;-76
2024/01/04 09:05:07;;;;;;;3.97;0.75;;;8.50;99.90;;;;;;5044782;28;20033;-74
2024/01/04 09:07:33;;;;;;;6.00;0.63;;;8.60;99.90;;;;;;5061735;28;20079;-76
2024/01/04 09:09:59;;;;;;;3.03;0.60;;;8.70;99.90;;;;;;5062754;28;20080;-74
2024/01/04 09:12:27;;;;;;;3.13;0.60;;;8.80;99.90;;;;;;5062583;28;20265;-74
2024/01/04 09:14:53;;;;;;;7.23;0.70;;;8.80;99.90;;;;;;5052518;28;20128;-77
2024/01/04 09:17:19;;;;;;;6.57;1.17;;;8.90;99.90;;;;;;5040894;28;20032;-76
2024/01/04 09:19:52;;;;;;;3.30;0.40;;;8.90;99.90;;;;;;5041590;28;20034;-76
2024/01/04 09:22:18;;;;;;;2.30;0.50;;;9.00;99.90;;;;;;5057517;28;20287;-73
2024/01/04 09:24:44;;;;;;;1.90;0.50;;;9.00;99.90;;;;;;5042474;28;20025;-71
2024/01/04 09:27:12;;;;;;;4.30;0.50;;;9.00;99.90;;;;;;5042415;28;20051;-73
2024/01/04 09:29:41;;;;;;;5.13;0.60;;;8.90;99.90;;;;;;5041606;28;20042;-75
2024/01/04 09:32:10;;;;;;;4.03;0.50;;;8.90;99.90;;;;;;5024975;28;20039;-74
2024/01/04 09:34:56;;;;;;;2.55;0.40;;;8.90;99.90;;;;;;5041896;28;20226;-78
2024/01/04 09:37:24;;;;;;;4.55;0.60;;;8.90;99.90;;;;;;5057464;28;20036;-74
2024/01/04 09:39:50;;;;;;;4.95;0.57;;;8.90;99.90;;;;;;5024360;28;20029;-73
2024/01/04 09:42:17;;;;;;;3.13;0.40;;;9.00;99.90;;;;;;5042367;28;20083;-76
2024/01/04 09:44:45;;;;;;;3.88;0.90;;;9.10;99.90;;;;;;5042671;28;20017;-72
2024/01/04 09:47:14;;;;;;;2.55;0.40;;;9.30;99.90;;;;;;5042592;28;20049;-71
2024/01/04 09:49:42;;;;;;;3.63;0.52;;;9.40;99.90;;;;;;5041700;28;20038;-73
2024/01/04 09:52:11;;;;;;;4.45;0.82;;;9.50;99.90;;;;;;5047261;28;20017;-72
2024/01/04 09:54:42;;;;;;;4.80;0.98;;;9.70;99.90;;;;;;5061766;28;20033;-74
2024/01/04 09:57:11;;;;;;;2.65;0.50;;;9.90;99.90;;;;;;5041017;28;20025;-71
2024/01/04 09:59:36;;;;;;;3.63;0.60;;;10.10;99.90;;;;;;5044805;28;20043;-74
2024/01/04 10:02:05;;;;;;;6.63;0.73;;;10.10;99.70;;;;;;5046267;28;20025;-74
2024/01/04 10:04:31;;;;;;;3.03;0.63;;;10.10;99.20;;;;;;5056721;28;20049;-73
2024/01/04 10:07:04;;;;;;;4.60;0.45;;;10.00;99.40;;;;;;5041989;28;20040;-75
2024/01/04 10:09:54;;;;;;;4.65;0.75;;;10.00;99.50;;;;;;5041409;28;20037;-75
2024/01/04 10:12:21;;;;;;;5.05;0.80;;;10.00;99.40;;;;;;5041468;28;20033;-73
2024/01/04 10:14:48;;;;;;;3.35;0.60;;;10.10;98.90;;;;;;5044510;28;20033;-72
2024/01/04 10:17:28;;;;;;;4.13;0.57;;;10.10;99.10;;;;;;5044505;28;20018;-74
2024/01/04 10:19:55;;;;;;;3.63;0.55;;;10.10;98.00;;;;;;5055872;28;20111;-74
2024/01/04 10:22:22;;;;;;;6.25;0.90;;;10.00;98.30;;;;;;5044856;28;20338;-73
2024/01/04 10:24:48;;;;;;;4.20;0.60;;;9.90;98.30;;;;;;5045887;28;20109;-72
2024/01/04 10:27:18;;;;;;;2.38;0.47;;;9.80;98.90;;;;;;5045824;28;20041;-72
2024/01/04 10:29:51;;;;;;;3.67;0.60;;;9.80;98.60;;;;;;5045217;28;20308;-72
2024/01/04 10:32:17;;;;;;;3.33;0.60;;;9.70;99.90;;;;;;5045378;28;20092;-73
2024/01/04 10:34:43;;;;;;;3.80;0.60;;;9.60;99.90;;;;;;5044111;28;20327;-72
2024/01/04 10:37:22;;;;;;;4.78;1.38;;;9.40;99.90;;;;;;5045603;28;20033;-72
2024/01/04 10:40:09;;;;;;;4.07;0.95;;;9.20;99.90;;;;;;5061318;28;20053;-73
2024/01/04 10:42:35;;;;;;;4.05;0.57;;;9.00;99.90;;;;;;5045099;28;20060;-73
2024/01/04 10:45:04;;;;;;;5.18;1.05;;;8.90;99.90;;;;;;5045546;28;20034;-73
2024/01/04 10:47:30;;;;;;;4.63;0.60;;;9.00;99.90;;;;;;5044585;28;20037;-72
2024/01/04 10:49:59;;;;;;;4.05;0.70;;;9.00;99.90;;;;;;5027686;28;20347;-75
2024/01/04 10:52:30;;;;;;;5.32;0.57;;;9.00;99.90;;;;;;5044091;28;20327;-74
2024/01/04 10:54:58;;;;;;;4.50;0.60;;;9.00;99.90;;;;;;5044418;28;20055;-74
2024/01/04 10:57:31;;;;;;;3.07;0.60;;;9.00;99.90;;;;;;5044834;28;20077;-74
2024/01/04 10:59:58;;;;;;;4.00;0.77;;;8.90;99.90;;;;;;5047214;28;20086;-76
2024/01/04 11:02:25;;;;;;;2.63;0.57;;;8.90;99.90;;;;;;5054278;28;20114;-74
2024/01/04 11:04:52;;;;;;;2.55;0.40;;;9.00;99.90;;;;;;5060578;28;20019;-73
2024/01/04 11:07:18;;;;;;;2.33;0.35;;;9.40;99.90;;;;;;5044939;28;20061;-73
2024/01/04 11:09:44;;;;;;;3.45;0.40;;;9.90;99.90;;;;;;5061656;28;20045;-73
2024/01/04 11:12:11;;;;;;;1.65;0.32;;;10.40;99.90;;;;;;5059516;28;20017;-75
2024/01/04 11:14:37;;;;;;;1.25;0.20;;;10.90;98.70;;;;;;5044184;28;20025;-75
2024/01/04 11:17:39;;;;;;;1.58;0.20;;;10.80;97.80;;;;;;5044911;28;20034;-75
2024/01/04 11:20:44;;;;;;;1.80;0.20;;;10.90;97.50;;;;;;5060726;28;20047;-75
2024/01/04 11:23:16;;;;;;;1.35;0.22;;;10.30;99.10;;;;;;5044838;28;20029;-74
2024/01/04 11:26:00;;;;;;;2.45;0.30;;;10.00;99.90;;;;;;5044526;28;20037;-75
2024/01/04 11:28:27;;;;;;;2.70;0.40;;;10.20;99.90;;;;;;5044480;28;20025;-74
2024/01/04 11:30:53;;;;;;;2.13;0.30;;;10.90;99.70;;;;;;5052341;28;20043;-73
2024/01/04 11:33:21;;;;;;;1.65;0.30;;;11.30;99.00;;;;;;5064781;28;20037;-75
2024/01/04 11:35:50;;;;;;;1.63;0.40;;;12.10;98.20;;;;;;5064986;28;20021;-73
2024/01/04 11:38:24;;;;;;;2.95;0.60;;;13.20;95.30;;;;;;5064913;28;20079;-72
2024/01/04 11:40:50;;;;;;;2.35;0.50;;;14.00;93.50;;;;;;5062764;28;20091;-73
2024/01/04 11:43:16;;;;;;;1.33;0.60;;;14.50;93.10;;;;;;5064506;28;20044;-73
2024/01/04 11:45:45;;;;;;;1.23;0.40;;;14.40;92.00;;;;;;5063780;28;20086;-72
2024/01/04 11:48:12;;;;;;;1.65;0.30;;;13.80;92.50;;;;;;5064505;28;20059;-71
2024/01/04 11:50:48;;;;;;;4.20;0.40;;;12.90;94.10;;;;;;5079290;28;20045;-73
2024/01/04 11:53:15;;;;;;;2.30;0.40;;;12.00;96.90;;;;;;5064183;28;20370;-73
2024/01/04 11:55:41;;;;;;;2.67;0.50;;;11.40;99.00;;;;;;5063884;28;20024;-76
2024/01/04 11:58:36;;;;;;;1.48;0.38;;;10.60;98.90;;;;;;5064230;28;20280;-74
2024/01/04 12:01:02;;;;;;;2.97;0.52;;;9.80;99.90;;;;;;5051063;28;20116;-75
2024/01/04 12:03:29;;;;;;;2.95;0.43;;;9.40;99.90;;;;;;5044046;28;20220;-74
2024/01/04 12:05:55;;;;;;;1.25;0.35;;;9.10;99.90;;;;;;5044352;28;20017;-73
2024/01/04 12:08:31;;;;;;;2.58;0.40;;;9.60;99.90;;;;;;5043792;28;20033;-73
2024/01/04 12:11:05;;;;;;;2.88;0.60;;;11.00;99.90;;;;;;5043979;28;20042;-73
2024/01/04 12:13:31;;;;;;;2.28;0.60;;;12.30;97.90;;;;;;5043621;28;20033;-73
2024/01/04 12:15:57;;;;;;;2.67;0.52;;;12.70;95.30;;;;;;5044086;28;20093;-74
2024/01/04 12:18:23;;;;;;;3.00;0.60;;;12.60;95.20;;;;;;5043835;28;20039;-73
2024/01/04 12:20:49;;;;;;;4.55;0.68;;;13.30;94.00;;;;;;5043315;28;20037;-74
2024/01/04 12:23:16;;;;;;;1.92;0.40;;;14.40;92.20;;;;;;5043791;28;20033;-74
2024/01/04 12:25:42;;;;;;;3.08;0.93;;;15.10;88.50;;;;;;5043143;28;20076;-73
2024/01/04 12:28:09;;;;;;;5.28;0.63;;;15.10;88.00;;;;;;5058776;28;20033;-73
2024/01/04 12:30:38;;;;;;;3.38;0.70;;;15.20;86.50;;;;;;5042759;28;20044;-75
2024/01/04 12:33:04;;;;;;;2.67;0.60;;;15.40;86.30;;;;;;5043563;28;20081;-74
2024/01/04 12:35:30;;;;;;;3.13;0.52;;;15.10;83.90;;;;;;5042901;28;20366;-74
2024/01/04 12:38:02;;;;;;;3.15;0.68;;;15.10;83.50;;;;;;5041976;28;20051;-76
2024/01/04 12:40:37;;;;;;;2.40;0.50;;;15.10;84.50;;;;;;5042667;28;20092;-75
2024/01/04 12:43:03;;;;;;;4.15;0.75;;;15.90;81.50;;;;;;5042826;28;20049;-74
2024/01/04 12:45:32;;;;;;;4.78;0.80;;;15.80;80.00;;;;;;5042762;28;20120;-72
2024/01/04 12:48:05;;;;;;;2.53;0.70;;;16.50;78.40;;;;;;5042784;28;20108;-74
2024/01/04 12:50:34;;;;;;;5.80;1.23;;;15.80;79.80;;;;;;5042803;28;20041;-76
2024/01/04 12:53:00;;;;;;;3.90;0.63;;;16.20;78.90;;;;;;5043276;28;20378;-74
2024/01/04 12:55:26;;;;;;;3.25;0.85;;;16.20;78.50;;;;;;5042997;28;20025;-73